KSPS/SPS METAR and TAF weather

Enter ICAO airport designator
Station Type Date Time Source
KSPS METAR 2019/05/26 22:52 UTC NOAA

KSPS 262252Z AUTO 15017G22KT 10SM CLR 28/20 A2992 RMK AO2 SLP119 T02830200


Station Type Date Time Source
KSPS Decoded METAR 2019/05/26 22:52 UTC NOAA

WICHITA FALLS SHEPPARD AFB, TX, United States (KSPS) 33-59N 98-30W 308M
May 26, 2019 - 06:52 PM EDT / 2019.05.26 2252 UTC
Wind: from the SSE (150 degrees) at 20 MPH (17 KT) gusting to 25 MPH (22 KT):0
Visibility: 10 mile(s):0
Sky conditions: clear
Temperature: 82.9 F (28.3 C)
Dew Point: 68.0 F (20.0 C)
Relative Humidity: 60%
Pressure (altimeter): 29.92 in. Hg (1013 hPa)
ob: KSPS 262252Z AUTO 15017G22KT 10SM CLR 28/20 A2992 RMK AO2 SLP119 T02830200
cycle: 23

Station Type Date Time Source
KSPS TAF 2019/05/26 18:51 UTC NOAA

TAF KSPS 261748Z 2618/2718 18015G24KT P6SM BKN035
FM270200 15010KT P6SM FEW025 SCT040 BKN100
FM271500 17015G21KT P6SM SCT025

Example: see airport list